createdAt,value
2018-06-24T00:00:51.208Z,14.90
2018-06-24T00:01:51.206Z,14.87
2018-06-24T00:02:51.200Z,14.82
2018-06-24T00:03:51.193Z,14.80
2018-06-24T00:04:51.192Z,14.82
2018-06-24T00:05:51.185Z,14.79
2018-06-24T00:06:51.187Z,14.78
2018-06-24T00:07:51.183Z,14.83
2018-06-24T00:08:51.177Z,14.71
2018-06-24T00:09:51.173Z,14.80
2018-06-24T00:10:51.166Z,14.71
2018-06-24T00:11:51.161Z,14.72
2018-06-24T00:12:51.163Z,14.63
2018-06-24T00:13:51.180Z,14.63
2018-06-24T00:14:51.150Z,14.49
2018-06-24T00:15:51.146Z,14.53
2018-06-24T00:16:51.144Z,14.61
2018-06-24T00:17:51.138Z,14.60
2018-06-24T00:18:51.140Z,14.53
2018-06-24T00:19:51.136Z,14.54
2018-06-24T00:20:51.133Z,14.48
2018-06-24T00:21:51.129Z,14.57
2018-06-24T00:22:51.121Z,14.45
2018-06-24T00:23:51.115Z,14.53
2018-06-24T00:24:51.111Z,14.56
2018-06-24T00:25:51.107Z,14.49
2018-06-24T00:26:51.108Z,14.57
2018-06-24T00:27:51.106Z,14.61
2018-06-24T00:28:51.095Z,14.56
2018-06-24T00:29:51.092Z,14.57
2018-06-24T00:30:51.092Z,14.54
2018-06-24T00:31:51.092Z,14.56
2018-06-24T00:32:51.085Z,14.57
2018-06-24T00:33:51.082Z,14.60
2018-06-24T00:34:51.074Z,14.57
2018-06-24T00:35:51.070Z,14.56
2018-06-24T00:36:51.065Z,14.59
2018-06-24T00:37:51.062Z,14.56
2018-06-24T00:38:51.062Z,14.63
2018-06-24T00:39:51.058Z,14.60
2018-06-24T00:40:51.052Z,14.59
2018-06-24T00:41:51.049Z,14.60
2018-06-24T00:42:51.041Z,14.61
2018-06-24T00:43:51.036Z,14.69
2018-06-24T00:44:51.037Z,14.57
2018-06-24T00:45:51.034Z,14.67
2018-06-24T00:46:51.027Z,14.64
2018-06-24T00:47:51.021Z,14.80
2018-06-24T00:48:51.018Z,14.72
2018-06-24T00:49:51.014Z,14.79
2018-06-24T00:50:51.019Z,14.72
2018-06-24T00:51:51.012Z,14.74
2018-06-24T00:52:51.008Z,14.67
2018-06-24T00:53:51.005Z,14.72
2018-06-24T00:54:50.997Z,14.69
2018-06-24T00:55:50.991Z,14.71
2018-06-24T00:56:50.992Z,14.82
2018-06-24T00:57:50.987Z,14.78
2018-06-24T00:58:50.985Z,14.78
2018-06-24T00:59:50.980Z,14.91
2018-06-24T01:00:50.974Z,14.87
2018-06-24T01:01:50.970Z,14.93
2018-06-24T01:02:50.969Z,14.90
2018-06-24T01:03:50.965Z,14.90
2018-06-24T01:04:50.962Z,14.86
2018-06-24T01:05:50.959Z,14.95
2018-06-24T01:06:50.950Z,14.94
2018-06-24T01:07:50.951Z,15.01
2018-06-24T01:08:50.941Z,15.04
2018-06-24T01:09:50.942Z,15.03
2018-06-24T01:10:50.940Z,15.03
2018-06-24T01:11:50.936Z,15.07
2018-06-24T01:12:50.931Z,15.01
2018-06-24T01:13:50.928Z,15.13
2018-06-24T01:14:50.920Z,15.09
2018-06-24T01:15:50.917Z,15.15
2018-06-24T01:16:50.917Z,15.04
2018-06-24T01:17:50.914Z,15.13
2018-06-24T01:18:50.904Z,15.03
2018-06-24T01:19:50.900Z,15.03
2018-06-24T01:20:50.897Z,15.09
2018-06-24T01:21:50.893Z,15.12
2018-06-24T01:22:50.894Z,15.00
2018-06-24T01:23:50.890Z,14.91
2018-06-24T01:24:50.886Z,14.86
2018-06-24T01:25:50.882Z,14.87
2018-06-24T01:26:50.874Z,14.74
2018-06-24T01:27:50.870Z,14.80
2018-06-24T01:28:50.870Z,14.80
2018-06-24T01:29:50.864Z,14.80
2018-06-24T01:30:50.867Z,14.72
2018-06-24T01:31:50.860Z,14.75
2018-06-24T01:32:50.853Z,14.67
2018-06-24T01:33:50.848Z,14.72
2018-06-24T01:34:50.850Z,14.66
2018-06-24T01:35:50.846Z,14.57
2018-06-24T01:36:50.843Z,14.69
2018-06-24T01:37:50.839Z,14.61
2018-06-24T01:38:50.832Z,14.64
2018-06-24T01:39:50.825Z,14.66
2018-06-24T01:40:50.822Z,14.52
2018-06-24T01:41:50.818Z,14.67
2018-06-24T01:42:50.819Z,14.61
2018-06-24T01:43:50.816Z,14.60
2018-06-24T01:44:50.813Z,14.53
2018-06-24T01:45:50.808Z,14.49
2018-06-24T01:46:50.800Z,14.56
2018-06-24T01:47:50.796Z,14.66
2018-06-24T01:48:50.801Z,14.59
2018-06-24T01:49:50.795Z,14.59
2018-06-24T01:50:50.786Z,14.63
2018-06-24T01:51:50.781Z,14.56
2018-06-24T01:52:50.777Z,14.56
2018-06-24T01:53:50.774Z,14.49
2018-06-24T01:54:50.775Z,14.52
2018-06-24T01:55:50.770Z,14.52
2018-06-24T01:56:50.768Z,14.54
2018-06-24T01:57:50.763Z,14.48
2018-06-24T01:58:50.755Z,14.54
2018-06-24T01:59:50.752Z,14.49
2018-06-24T02:00:50.748Z,14.57
2018-06-24T02:01:50.744Z,14.60
2018-06-24T02:02:50.746Z,14.60
2018-06-24T02:03:50.740Z,14.60
2018-06-24T02:04:50.732Z,14.57
2018-06-24T02:05:50.730Z,14.49
2018-06-24T02:06:50.733Z,14.53
2018-06-24T02:07:50.725Z,14.57
2018-06-24T02:08:50.721Z,14.53
2018-06-24T02:09:50.718Z,14.60
2018-06-24T02:10:50.709Z,14.60
2018-06-24T02:11:50.705Z,14.71
2018-06-24T02:12:50.702Z,14.69
2018-06-24T02:13:50.698Z,14.59
2018-06-24T02:14:50.700Z,14.67
2018-06-24T02:15:50.694Z,14.66
2018-06-24T02:16:50.691Z,14.67
2018-06-24T02:17:50.687Z,14.71
2018-06-24T02:18:50.679Z,14.71
2018-06-24T02:19:50.674Z,14.72
2018-06-24T02:20:50.677Z,14.71
2018-06-24T02:21:50.671Z,14.66
2018-06-24T02:22:50.663Z,14.67
2018-06-24T02:23:50.658Z,14.53
2018-06-24T02:24:50.654Z,14.53
2018-06-24T02:25:50.654Z,14.56
2018-06-24T02:26:50.651Z,14.54
2018-06-24T02:27:50.646Z,14.59
2018-06-24T02:28:50.642Z,14.56
2018-06-24T02:29:50.640Z,14.57
2018-06-24T02:30:50.636Z,14.53
2018-06-24T02:31:50.625Z,14.63
2018-06-24T02:32:50.621Z,14.56
2018-06-24T02:33:50.621Z,14.59
2018-06-24T02:34:50.618Z,14.53
2018-06-24T02:35:50.613Z,14.49
2018-06-24T02:36:50.612Z,14.53
2018-06-24T02:37:50.601Z,14.49
2018-06-24T02:38:50.604Z,14.48
2018-06-24T02:39:50.596Z,14.48
2018-06-24T02:40:50.596Z,14.54
2018-06-24T02:41:50.589Z,14.48
2018-06-24T02:42:50.580Z,14.48
2018-06-24T02:43:50.574Z,14.41
2018-06-24T02:44:50.570Z,14.48
2018-06-24T02:45:50.570Z,14.53
2018-06-24T02:46:50.568Z,14.48
2018-06-24T02:47:50.561Z,14.54
2018-06-24T02:48:50.558Z,14.46
2018-06-24T02:49:50.560Z,14.45
2018-06-24T02:50:50.546Z,14.44
2018-06-24T02:51:50.541Z,14.45
2018-06-24T02:52:50.540Z,14.45
2018-06-24T02:53:50.537Z,14.41
2018-06-24T02:54:50.528Z,14.39
2018-06-24T02:55:50.523Z,14.36
2018-06-24T02:56:50.522Z,14.42
2018-06-24T02:57:50.516Z,14.41
2018-06-24T02:58:50.517Z,14.42
2018-06-24T02:59:50.512Z,14.39
2018-06-24T03:00:50.508Z,14.36
2018-06-24T03:01:50.503Z,14.42
2018-06-24T03:02:50.495Z,14.44
2018-06-24T03:03:50.489Z,14.39
2018-06-24T03:04:50.485Z,14.41
2018-06-24T03:05:50.481Z,14.41
2018-06-24T03:06:50.482Z,14.38
2018-06-24T03:07:50.477Z,14.30
2018-06-24T03:08:50.468Z,14.35
2018-06-24T03:09:50.464Z,14.30
2018-06-24T03:10:50.467Z,14.26
2018-06-24T03:11:50.459Z,14.26
2018-06-24T03:12:50.456Z,14.31
2018-06-24T03:13:50.452Z,14.34
2018-06-24T03:14:50.443Z,14.31
2018-06-24T03:15:50.439Z,14.31
2018-06-24T03:16:50.435Z,14.34
2018-06-24T03:17:50.430Z,14.26
2018-06-24T03:18:50.431Z,14.29
2018-06-24T03:19:50.426Z,14.26
2018-06-24T03:20:50.432Z,14.23
2018-06-24T03:21:50.419Z,14.16
2018-06-24T03:22:50.411Z,14.12
2018-06-24T03:23:50.406Z,14.12
2018-06-24T03:24:50.406Z,14.11
2018-06-24T03:25:50.402Z,14.13
2018-06-24T03:26:50.395Z,14.08
2018-06-24T03:27:50.388Z,14.08
2018-06-24T03:28:50.383Z,14.06
2018-06-24T03:29:50.379Z,14.05
2018-06-24T03:30:50.385Z,14.05
2018-06-24T03:31:50.375Z,13.99
2018-06-24T03:32:50.370Z,14.04
2018-06-24T03:33:50.366Z,13.98
2018-06-24T03:34:50.358Z,13.98
2018-06-24T03:35:50.353Z,13.94
2018-06-24T03:36:50.349Z,13.98
2018-06-24T03:37:50.356Z,13.94
2018-06-24T03:38:50.346Z,13.88
2018-06-24T03:39:50.341Z,13.84
2018-06-24T03:40:50.331Z,13.80
2018-06-24T03:41:50.327Z,13.76
2018-06-24T03:42:50.328Z,13.83
2018-06-24T03:43:50.323Z,13.79
2018-06-24T03:44:50.318Z,13.86
2018-06-24T03:45:50.316Z,13.86
2018-06-24T03:46:50.305Z,13.75
2018-06-24T03:47:50.300Z,13.81
2018-06-24T03:48:50.296Z,13.73
2018-06-24T03:49:50.292Z,13.76
2018-06-24T03:50:50.295Z,13.75
2018-06-24T03:51:50.287Z,13.75
2018-06-24T03:52:50.284Z,13.76
2018-06-24T03:53:50.282Z,13.76
2018-06-24T03:54:50.271Z,13.81
2018-06-24T03:55:50.265Z,13.80
2018-06-24T03:56:50.265Z,13.86
2018-06-24T03:57:50.266Z,13.83
2018-06-24T03:58:50.254Z,13.88
2018-06-24T03:59:50.247Z,13.88
2018-06-24T04:00:50.243Z,13.87
2018-06-24T04:01:50.245Z,13.91
2018-06-24T04:02:50.239Z,13.86
2018-06-24T04:03:50.236Z,13.94
2018-06-24T04:04:50.320Z,13.91
2018-06-24T04:05:50.226Z,13.94
2018-06-24T04:06:50.218Z,14.01
2018-06-24T04:07:50.214Z,13.98
2018-06-24T04:08:50.209Z,13.94
2018-06-24T04:09:50.203Z,13.93
2018-06-24T04:10:50.204Z,13.99
2018-06-24T04:11:50.199Z,14.05
2018-06-24T04:12:50.190Z,14.09
2018-06-24T04:13:50.186Z,14.13
2018-06-24T04:14:50.190Z,14.13
2018-06-24T04:15:50.183Z,14.13
2018-06-24T04:16:50.177Z,14.23
2018-06-24T04:17:50.173Z,14.23
2018-06-24T04:18:50.164Z,14.27
2018-06-24T04:19:50.160Z,14.30
2018-06-24T04:20:50.160Z,14.31
2018-06-24T04:21:50.157Z,14.31
2018-06-24T04:22:50.147Z,14.29
2018-06-24T04:23:50.142Z,14.29
2018-06-24T04:24:50.138Z,14.35
2018-06-24T04:25:50.188Z,14.35
2018-06-24T04:26:50.139Z,14.34
2018-06-24T04:27:50.130Z,14.21
2018-06-24T04:28:50.131Z,14.24
2018-06-24T04:29:50.120Z,14.24
2018-06-24T04:30:50.122Z,14.27
2018-06-24T04:31:50.116Z,14.21
2018-06-24T04:32:50.111Z,14.17
2018-06-24T04:33:50.105Z,14.20
2018-06-24T04:34:50.098Z,14.23
2018-06-24T04:35:50.092Z,14.24
2018-06-24T04:36:50.089Z,14.17
2018-06-24T04:37:50.086Z,14.29
2018-06-24T04:38:50.087Z,14.31
2018-06-24T04:39:50.081Z,14.30
2018-06-24T04:40:50.080Z,14.31
2018-06-24T04:41:50.073Z,14.36
2018-06-24T04:42:50.066Z,14.38
2018-06-24T04:43:50.062Z,14.41
2018-06-24T04:44:50.061Z,14.42
2018-06-24T04:45:50.058Z,14.41
2018-06-24T04:46:50.052Z,14.53
2018-06-24T04:47:50.050Z,14.61
2018-06-24T04:48:50.043Z,14.57
2018-06-24T04:49:50.043Z,14.66
2018-06-24T04:50:50.038Z,14.82
2018-06-24T04:51:50.036Z,14.78
2018-06-24T04:52:50.029Z,14.91
2018-06-24T04:53:50.027Z,15.00
2018-06-24T04:54:50.018Z,15.04
2018-06-24T04:55:50.014Z,15.20
2018-06-24T04:56:50.010Z,15.23
2018-06-24T04:57:50.009Z,15.35
2018-06-24T04:58:50.015Z,15.43
2018-06-24T04:59:50.006Z,15.40
2018-06-24T05:00:49.995Z,15.51
2018-06-24T05:01:49.992Z,15.59
2018-06-24T05:02:49.995Z,15.67
2018-06-24T05:03:49.992Z,15.78
2018-06-24T05:04:49.987Z,15.86
2018-06-24T05:05:49.987Z,15.99
2018-06-24T05:06:49.981Z,16.01
2018-06-24T05:07:49.971Z,16.08
2018-06-24T05:08:49.969Z,16.17
2018-06-24T05:09:49.967Z,16.17
2018-06-24T05:10:49.972Z,16.17
2018-06-24T05:11:49.978Z,16.30
2018-06-24T05:12:49.969Z,16.29
2018-06-24T05:13:49.962Z,16.32
2018-06-24T05:14:49.957Z,16.40
2018-06-24T05:15:49.949Z,16.44
2018-06-24T05:16:49.954Z,16.42
2018-06-24T05:17:49.952Z,16.48
2018-06-24T05:18:49.944Z,16.48
2018-06-24T05:19:49.939Z,16.54
2018-06-24T05:20:49.939Z,16.62
2018-06-24T05:21:49.939Z,16.80
2018-06-24T05:22:49.936Z,16.81
2018-06-24T05:23:49.930Z,16.91
2018-06-24T05:24:49.930Z,17.27
2018-06-24T05:25:49.927Z,17.49
2018-06-24T05:26:49.924Z,17.60
2018-06-24T05:27:49.926Z,17.66
2018-06-24T05:28:49.916Z,17.62
2018-06-24T05:29:49.914Z,17.89
2018-06-24T05:30:49.915Z,17.84
2018-06-24T05:31:49.914Z,17.99
2018-06-24T05:32:49.907Z,17.98
2018-06-24T05:33:49.908Z,17.99
2018-06-24T05:34:49.908Z,18.05
2018-06-24T05:35:49.906Z,18.02
2018-06-24T05:36:49.906Z,18.01
2018-06-24T05:37:49.913Z,17.94
2018-06-24T05:38:49.901Z,17.91
2018-06-24T05:39:49.898Z,17.80
2018-06-24T05:40:49.895Z,17.74
2018-06-24T05:41:49.894Z,17.74
2018-06-24T05:42:49.910Z,17.83
2018-06-24T05:43:49.896Z,17.79
2018-06-24T05:44:49.894Z,17.83
2018-06-24T05:45:49.893Z,17.81
2018-06-24T05:46:49.889Z,17.77
2018-06-24T05:47:49.889Z,17.68
2018-06-24T05:48:50.016Z,17.81
2018-06-24T05:49:49.888Z,17.87
2018-06-24T05:50:49.887Z,17.96
2018-06-24T05:51:49.881Z,18.04
2018-06-24T05:52:49.880Z,18.17
2018-06-24T05:53:49.881Z,18.42
2018-06-24T05:54:49.884Z,18.66
2018-06-24T05:55:49.883Z,18.94
2018-06-24T05:56:49.881Z,19.06
2018-06-24T05:57:49.882Z,19.23
2018-06-24T05:58:49.879Z,19.43
2018-06-24T05:59:49.893Z,19.67
2018-06-24T06:00:49.876Z,19.83
2018-06-24T06:01:49.872Z,19.98
2018-06-24T06:02:49.918Z,20.23
2018-06-24T06:03:49.874Z,20.50
2018-06-24T06:04:49.871Z,20.76
2018-06-24T06:05:49.871Z,21.28
2018-06-24T06:06:49.876Z,21.73
2018-06-24T06:07:49.876Z,22.05
2018-06-24T06:08:49.875Z,21.96
2018-06-24T06:09:49.878Z,22.24
2018-06-24T06:10:49.873Z,22.82
2018-06-24T06:11:49.943Z,23.14
2018-06-24T06:12:49.874Z,23.42
2018-06-24T06:13:49.898Z,23.71
2018-06-24T06:14:49.883Z,24.14
2018-06-24T06:15:49.883Z,24.19
2018-06-24T06:16:49.886Z,24.39
2018-06-24T06:17:49.887Z,24.67
2018-06-24T06:18:49.885Z,24.68
2018-06-24T06:19:49.887Z,24.49
2018-06-24T06:20:49.894Z,24.84
2018-06-24T06:21:49.906Z,24.74
2018-06-24T06:22:49.900Z,24.18
2018-06-24T06:23:49.901Z,24.68
2018-06-24T06:24:49.903Z,25.29
2018-06-24T06:25:49.906Z,25.29
2018-06-24T06:26:49.915Z,25.78
2018-06-24T06:27:49.921Z,25.46
2018-06-24T06:28:49.921Z,25.16
2018-06-24T06:29:49.925Z,25.20
2018-06-24T06:30:49.926Z,25.34
2018-06-24T06:31:49.933Z,25.19
2018-06-24T06:32:49.934Z,24.90
2018-06-24T06:33:49.939Z,24.83
2018-06-24T06:34:49.949Z,24.48
2018-06-24T06:35:49.953Z,24.30
2018-06-24T06:36:50.072Z,24.14
2018-06-24T06:37:49.956Z,23.77
2018-06-24T06:38:49.967Z,23.56
2018-06-24T06:39:49.970Z,22.81
2018-06-24T06:40:49.974Z,22.06
2018-06-24T06:41:49.978Z,21.56
2018-06-24T06:42:49.979Z,21.52
2018-06-24T06:43:49.981Z,21.55
2018-06-24T06:44:49.985Z,21.49
2018-06-24T06:45:50.087Z,20.93
2018-06-24T06:46:49.996Z,20.93
2018-06-24T06:47:49.999Z,20.90
2018-06-24T06:48:50.003Z,20.85
2018-06-24T06:49:50.007Z,20.97
2018-06-24T06:50:50.004Z,20.91
2018-06-24T06:51:50.010Z,21.06
2018-06-24T06:52:50.014Z,21.13
2018-06-24T06:53:50.018Z,21.18
2018-06-24T06:54:50.014Z,21.15
2018-06-24T06:55:50.017Z,21.05
2018-06-24T06:56:50.020Z,21.05
2018-06-24T06:57:50.067Z,21.05
2018-06-24T06:58:50.027Z,20.90
2018-06-24T06:59:50.029Z,20.85
2018-06-24T07:00:50.031Z,20.73
2018-06-24T07:01:50.034Z,20.56
2018-06-24T07:02:50.032Z,20.53
2018-06-24T07:03:50.033Z,20.48
2018-06-24T07:04:50.036Z,20.33
2018-06-24T07:05:50.052Z,20.20
2018-06-24T07:06:50.043Z,20.15
2018-06-24T07:07:50.043Z,20.01
2018-06-24T07:08:50.040Z,19.89
2018-06-24T07:09:50.092Z,19.78
2018-06-24T07:10:50.048Z,19.71
2018-06-24T07:11:50.049Z,19.49
2018-06-24T07:12:50.050Z,19.50
2018-06-24T07:13:50.050Z,19.45
2018-06-24T07:14:50.049Z,19.49
2018-06-24T07:15:50.047Z,19.49
2018-06-24T07:16:50.048Z,19.35
2018-06-24T07:17:50.052Z,19.35
2018-06-24T07:18:50.054Z,19.45
2018-06-24T07:19:50.055Z,19.38
2018-06-24T07:20:50.055Z,19.47
2018-06-24T07:21:50.056Z,19.52
2018-06-24T07:22:50.056Z,19.38
2018-06-24T07:23:50.053Z,19.23
2018-06-24T07:24:50.059Z,19.35
2018-06-24T07:25:50.058Z,19.57
2018-06-24T07:26:50.057Z,19.61
2018-06-24T07:27:50.132Z,19.65
2018-06-24T07:28:50.054Z,19.67
2018-06-24T07:29:50.056Z,19.82
2018-06-24T07:30:50.060Z,20.05
2018-06-24T07:31:50.060Z,20.15
2018-06-24T07:32:50.065Z,20.25
2018-06-24T07:33:50.260Z,20.33
2018-06-24T07:34:50.057Z,20.50
2018-06-24T07:35:50.058Z,20.51
2018-06-24T07:36:50.058Z,20.44
2018-06-24T07:37:50.059Z,19.95
2018-06-24T07:38:50.065Z,19.98
2018-06-24T07:39:50.065Z,19.97
2018-06-24T07:40:50.064Z,19.75
2018-06-24T07:41:50.063Z,19.60
2018-06-24T07:42:50.067Z,19.57
2018-06-24T07:43:50.070Z,19.45
2018-06-24T07:44:50.070Z,19.58
2018-06-24T07:45:50.072Z,19.70
2018-06-24T07:46:50.069Z,19.76
2018-06-24T07:47:50.069Z,19.67
2018-06-24T07:48:50.072Z,19.55
2018-06-24T07:49:50.071Z,19.82
2018-06-24T07:50:50.079Z,19.76
2018-06-24T07:51:50.077Z,19.68
2018-06-24T07:52:50.079Z,19.58
2018-06-24T07:53:50.079Z,19.92
2018-06-24T07:54:50.077Z,20.17
2018-06-24T07:55:50.076Z,20.56
2018-06-24T07:56:50.082Z,20.78
2018-06-24T07:57:50.084Z,20.58
2018-06-24T07:58:50.081Z,20.57
2018-06-24T07:59:50.082Z,20.50
2018-06-24T08:00:50.084Z,20.72
2018-06-24T08:01:50.087Z,20.63
2018-06-24T08:02:50.091Z,20.56
2018-06-24T08:03:50.094Z,20.19
2018-06-24T08:04:50.095Z,20.30
2018-06-24T08:05:50.100Z,20.44
2018-06-24T08:06:50.094Z,20.00
2018-06-24T08:07:50.095Z,19.98
2018-06-24T08:08:50.097Z,19.94
2018-06-24T08:09:50.099Z,19.78
2018-06-24T08:10:50.105Z,19.75
2018-06-24T08:11:50.107Z,20.13
2018-06-24T08:12:50.105Z,20.48
2018-06-24T08:13:50.106Z,20.85
2018-06-24T08:14:50.113Z,21.15
2018-06-24T08:15:50.115Z,21.58
2018-06-24T08:16:50.118Z,21.91
2018-06-24T08:17:50.121Z,22.38
2018-06-24T08:18:50.119Z,22.56
2018-06-24T08:19:50.118Z,22.69
2018-06-24T08:20:50.122Z,22.96
2018-06-24T08:21:50.124Z,23.19
2018-06-24T08:22:50.168Z,23.37
2018-06-24T08:23:50.133Z,23.74
2018-06-24T08:24:50.138Z,24.15
2018-06-24T08:25:50.141Z,24.15
2018-06-24T08:26:50.149Z,24.42
2018-06-24T08:27:50.143Z,24.86
2018-06-24T08:28:50.150Z,25.16
2018-06-24T08:29:50.154Z,25.45
2018-06-24T08:30:50.153Z,25.96
2018-06-24T08:31:50.157Z,26.38
2018-06-24T08:32:50.162Z,26.66
2018-06-24T08:33:50.170Z,26.83
2018-06-24T08:34:50.177Z,27.46
2018-06-24T08:35:50.183Z,27.76
2018-06-24T08:36:50.187Z,27.74
2018-06-24T08:37:50.196Z,27.53
2018-06-24T08:38:50.197Z,27.46
2018-06-24T08:39:50.199Z,27.15
2018-06-24T08:40:50.206Z,26.83
2018-06-24T08:41:50.239Z,26.78
2018-06-24T08:42:50.223Z,26.97
2018-06-24T08:43:50.228Z,26.81
2018-06-24T08:44:50.230Z,26.86
2018-06-24T08:45:50.237Z,26.60
2018-06-24T08:46:50.249Z,26.53
2018-06-24T08:47:50.253Z,26.47
2018-06-24T08:48:50.262Z,26.28
2018-06-24T08:49:50.267Z,26.29
2018-06-24T08:50:50.269Z,26.42
2018-06-24T08:51:50.277Z,26.09
2018-06-24T08:52:50.282Z,25.29
2018-06-24T08:53:50.289Z,25.22
2018-06-24T08:54:50.300Z,25.19
2018-06-24T08:55:50.312Z,25.11
2018-06-24T08:56:50.312Z,25.29
2018-06-24T08:57:50.318Z,25.38
2018-06-24T08:58:50.320Z,25.64
2018-06-24T08:59:50.325Z,25.67
2018-06-24T09:00:50.337Z,25.57
2018-06-24T09:01:50.343Z,25.39
2018-06-24T09:02:50.344Z,25.26
2018-06-24T09:03:50.350Z,24.68
2018-06-24T09:04:50.355Z,24.23
2018-06-24T09:05:50.361Z,23.86
2018-06-24T09:06:50.373Z,23.41
2018-06-24T09:07:50.377Z,23.42
2018-06-24T09:08:50.382Z,23.50
2018-06-24T09:09:50.393Z,23.52
2018-06-24T09:10:50.392Z,23.56
2018-06-24T09:11:50.394Z,23.71
2018-06-24T09:12:50.399Z,24.00
2018-06-24T09:13:50.404Z,24.24
2018-06-24T09:14:50.447Z,24.59
2018-06-24T09:15:50.459Z,25.14
2018-06-24T09:16:50.419Z,25.66
2018-06-24T09:17:50.424Z,25.97
2018-06-24T09:18:50.434Z,26.42
2018-06-24T09:19:50.438Z,26.61
2018-06-24T09:20:50.444Z,27.18
2018-06-24T09:21:50.451Z,27.25
2018-06-24T09:22:50.452Z,27.25
2018-06-24T09:23:50.457Z,27.62
2018-06-24T09:24:50.464Z,28.58
2018-06-24T09:25:50.471Z,29.12
2018-06-24T09:26:50.487Z,29.33
2018-06-24T09:27:50.490Z,30.01
2018-06-24T09:28:50.498Z,29.41
2018-06-24T09:29:50.505Z,29.26
2018-06-24T09:30:50.552Z,28.23
2018-06-24T09:31:50.527Z,27.61
2018-06-24T09:32:50.531Z,27.38
2018-06-24T09:33:50.540Z,26.76
2018-06-24T09:34:50.547Z,26.94
2018-06-24T09:35:50.553Z,26.93
2018-06-24T09:36:50.563Z,26.65
2018-06-24T09:37:50.572Z,26.47
2018-06-24T09:38:50.584Z,26.44
2018-06-24T09:39:50.592Z,26.50
2018-06-24T09:40:50.628Z,27.13
2018-06-24T09:41:50.608Z,27.50
2018-06-24T09:42:50.613Z,28.15
2018-06-24T09:43:50.618Z,27.78
2018-06-24T09:44:50.627Z,27.42
2018-06-24T09:45:50.648Z,28.13
2018-06-24T09:46:50.648Z,29.10
2018-06-24T09:47:50.657Z,30.15
2018-06-24T09:48:50.663Z,30.54
2018-06-24T09:49:50.670Z,31.05
2018-06-24T09:50:50.684Z,31.62
2018-06-24T09:51:50.694Z,32.51
2018-06-24T09:52:50.723Z,33.31
2018-06-24T09:53:50.716Z,33.49
2018-06-24T09:54:50.723Z,34.00
2018-06-24T09:55:50.734Z,33.86
2018-06-24T09:56:50.748Z,34.05
2018-06-24T09:57:50.759Z,33.92
2018-06-24T09:58:50.778Z,33.49
2018-06-24T09:59:50.789Z,34.00
2018-06-24T10:00:50.805Z,34.75
2018-06-24T10:01:50.823Z,34.65
2018-06-24T10:02:50.829Z,34.50
2018-06-24T10:03:50.843Z,34.71
2018-06-24T10:04:50.862Z,33.96
2018-06-24T10:05:50.878Z,31.19
2018-06-24T10:06:50.888Z,30.66
2018-06-24T10:07:50.903Z,31.25
2018-06-24T10:08:51.325Z,31.59
2018-06-24T10:09:50.940Z,32.39
2018-06-24T10:10:50.954Z,32.65
2018-06-24T10:11:50.967Z,32.81
2018-06-24T10:12:50.986Z,32.12
2018-06-24T10:13:51.000Z,30.36
2018-06-24T10:14:51.010Z,30.34
2018-06-24T10:15:51.025Z,30.91
2018-06-24T10:16:51.043Z,32.07
2018-06-24T10:17:51.058Z,31.91
2018-06-24T10:18:51.075Z,31.69
2018-06-24T10:19:51.091Z,31.84
2018-06-24T10:20:51.101Z,32.50
2018-06-24T10:21:51.115Z,32.35
2018-06-24T10:22:51.134Z,33.00
2018-06-24T10:23:51.150Z,33.45
2018-06-24T10:24:51.165Z,32.78
2018-06-24T10:25:51.178Z,33.12
2018-06-24T10:26:51.189Z,33.28
2018-06-24T10:27:51.204Z,33.44
2018-06-24T10:28:51.220Z,33.38
2018-06-24T10:29:51.235Z,34.26
2018-06-24T10:30:51.258Z,34.27
2018-06-24T10:31:51.269Z,33.84
2018-06-24T10:32:51.288Z,32.51
2018-06-24T10:33:51.301Z,32.47
2018-06-24T10:34:51.312Z,32.87
2018-06-24T10:35:51.329Z,32.76
2018-06-24T10:36:51.348Z,32.65
2018-06-24T10:37:51.363Z,32.41
2018-06-24T10:38:51.376Z,31.27
2018-06-24T10:39:51.396Z,31.16
2018-06-24T10:40:51.406Z,30.61
2018-06-24T10:41:51.420Z,30.60
2018-06-24T10:42:51.439Z,30.66
2018-06-24T10:43:51.453Z,30.67
2018-06-24T10:44:51.469Z,30.85
2018-06-24T10:45:51.483Z,29.89
2018-06-24T10:46:51.493Z,29.58
2018-06-24T10:47:51.505Z,28.87
2018-06-24T10:48:51.521Z,29.26
2018-06-24T10:49:51.533Z,29.67
2018-06-24T10:50:51.550Z,30.11
2018-06-24T10:51:51.563Z,30.75
2018-06-24T10:52:51.583Z,31.13
2018-06-24T10:53:51.585Z,31.42
2018-06-24T10:54:51.603Z,31.00
2018-06-24T10:55:51.615Z,31.31
2018-06-24T10:56:51.628Z,31.56
2018-06-24T10:57:51.640Z,31.15
2018-06-24T10:58:51.648Z,31.38
2018-06-24T10:59:51.659Z,31.60
2018-06-24T11:00:51.672Z,31.67
2018-06-24T11:01:51.689Z,31.84
2018-06-24T11:02:51.702Z,31.34
2018-06-24T11:03:51.713Z,31.59
2018-06-24T11:04:51.724Z,31.78
2018-06-24T11:05:51.737Z,31.60
2018-06-24T11:06:51.746Z,31.41
2018-06-24T11:07:51.757Z,31.62
2018-06-24T11:08:51.773Z,31.71
2018-06-24T11:09:51.834Z,31.18
2018-06-24T11:10:51.794Z,30.81
2018-06-24T11:11:51.807Z,30.82
2018-06-24T11:12:51.850Z,30.51
2018-06-24T11:13:51.831Z,30.38
2018-06-24T11:14:51.850Z,30.37
2018-06-24T11:15:51.860Z,29.69
2018-06-24T11:16:51.873Z,29.49
2018-06-24T11:17:51.884Z,28.77
2018-06-24T11:18:51.892Z,28.65
2018-06-24T11:19:51.901Z,28.72
2018-06-24T11:20:51.912Z,28.72
2018-06-24T11:21:51.970Z,28.79
2018-06-24T11:22:51.939Z,28.82
2018-06-24T11:23:51.948Z,28.88
2018-06-24T11:24:51.954Z,28.64
2018-06-24T11:25:51.968Z,28.35
2018-06-24T11:26:51.981Z,28.36
2018-06-24T11:27:51.988Z,28.06
2018-06-24T11:28:51.999Z,27.99
2018-06-24T11:29:52.009Z,27.80
2018-06-24T11:30:52.014Z,27.65
2018-06-24T11:31:52.022Z,27.55
2018-06-24T11:32:52.031Z,27.46
2018-06-24T11:33:52.041Z,27.83
2018-06-24T11:34:52.055Z,27.68
2018-06-24T11:35:52.061Z,27.48
2018-06-24T11:36:52.118Z,27.09
2018-06-24T11:37:52.078Z,25.85
2018-06-24T11:38:52.082Z,25.81
2018-06-24T11:39:52.091Z,25.81
2018-06-24T11:40:52.104Z,26.17
2018-06-24T11:41:52.112Z,26.11
2018-06-24T11:42:52.114Z,26.53
2018-06-24T11:43:52.125Z,26.53
2018-06-24T11:44:52.131Z,25.45
2018-06-24T11:45:52.137Z,25.44
2018-06-24T11:46:52.149Z,25.17
2018-06-24T11:47:52.161Z,25.42
2018-06-24T11:48:52.162Z,25.72
2018-06-24T11:49:52.170Z,25.82
2018-06-24T11:50:52.173Z,26.06
2018-06-24T11:51:52.180Z,26.21
2018-06-24T11:52:52.190Z,26.39
2018-06-24T11:53:52.195Z,26.42
2018-06-24T11:54:52.207Z,26.49
2018-06-24T11:55:52.213Z,26.32
2018-06-24T11:56:52.231Z,26.06
2018-06-24T11:57:52.222Z,25.94
2018-06-24T11:58:52.233Z,26.13
2018-06-24T11:59:52.240Z,26.04
2018-06-24T12:00:52.246Z,26.08
2018-06-24T12:01:52.256Z,26.12
2018-06-24T12:02:52.257Z,26.08
2018-06-24T12:03:52.261Z,26.04
2018-06-24T12:04:52.271Z,26.29
2018-06-24T12:05:52.275Z,26.31
2018-06-24T12:06:52.308Z,26.32
2018-06-24T12:07:52.292Z,26.17
2018-06-24T12:08:52.298Z,25.64
2018-06-24T12:09:52.376Z,25.54
2018-06-24T12:10:52.375Z,25.54
2018-06-24T12:11:52.312Z,25.51
2018-06-24T12:12:52.325Z,25.64
2018-06-24T12:13:52.331Z,25.96
2018-06-24T12:14:52.332Z,25.82
2018-06-24T12:15:52.338Z,26.01
2018-06-24T12:16:52.344Z,26.21
2018-06-24T12:17:52.350Z,26.36
2018-06-24T12:18:52.361Z,26.32
2018-06-24T12:19:52.367Z,26.57
2018-06-24T12:20:52.373Z,26.56
2018-06-24T12:21:52.381Z,26.23
2018-06-24T12:22:52.383Z,25.98
2018-06-24T12:23:52.387Z,25.82
2018-06-24T12:24:52.395Z,25.85
2018-06-24T12:25:52.401Z,25.83
2018-06-24T12:26:52.413Z,25.83
2018-06-24T12:27:52.417Z,26.23
2018-06-24T12:28:52.421Z,26.21
2018-06-24T12:29:52.425Z,26.17
2018-06-24T12:30:52.438Z,25.67
2018-06-24T12:31:52.442Z,25.74
2018-06-24T12:32:52.447Z,25.51
2018-06-24T12:33:52.453Z,25.29
2018-06-24T12:34:52.455Z,25.11
2018-06-24T12:35:52.459Z,25.04
2018-06-24T12:36:52.465Z,24.94
2018-06-24T12:37:52.471Z,25.05
2018-06-24T12:38:52.482Z,25.19
2018-06-24T12:39:52.486Z,25.31
2018-06-24T12:40:52.493Z,25.24
2018-06-24T12:41:52.498Z,25.11
2018-06-24T12:42:52.503Z,25.19
2018-06-24T12:43:52.504Z,25.31
2018-06-24T12:44:52.514Z,25.42
2018-06-24T12:45:52.521Z,25.41
2018-06-24T12:46:52.521Z,24.94
2018-06-24T12:47:52.526Z,24.89
2018-06-24T12:48:52.532Z,24.79
2018-06-24T12:49:52.536Z,24.75
2018-06-24T12:50:52.546Z,24.82
2018-06-24T12:51:52.550Z,24.79
2018-06-24T12:52:52.561Z,24.74